Time;durP1;ratioP1;P1;durP2;ratioP2;P2;SDS_P1;SDS_P2;PMS_P1;PMS_P2;Temp;Humidity;BMP_temperature;BMP_pressure;BME280_temperature;BME280_humidity;BME280_pressure;Samples;Min_cycle;Max_cycle;Signal;HPM_P1;HPM_P2
2021/01/09 00:00:26;;;;;;;14.15;10.23;;;;;;;;;;5118024;28;20208;-59
2021/01/09 00:02:53;;;;;;;15.27;10.35;;;;;;;;;;5118806;28;20290;-59
2021/01/09 00:05:19;;;;;;;13.25;10.05;;;;;;;;;;5117496;28;20670;-59
2021/01/09 00:07:46;;;;;;;16.63;10.40;;;;;;;;;;5117916;28;20646;-59
2021/01/09 00:10:13;;;;;;;13.75;11.13;;;;;;;;;;5125732;28;20196;-59
2021/01/09 00:12:41;;;;;;;15.32;12.00;;;;;;;;;;5130939;28;20215;-61
2021/01/09 00:15:08;;;;;;;15.32;11.43;;;;;;;;;;5122122;28;20195;-62
2021/01/09 00:17:35;;;;;;;13.93;10.60;;;;;;;;;;5116793;28;20195;-59
2021/01/09 00:20:02;;;;;;;16.25;11.88;;;;;;;;;;5115102;28;20222;-59
2021/01/09 00:22:29;;;;;;;17.88;12.35;;;;;;;;;;5115092;28;20233;-59
2021/01/09 00:24:56;;;;;;;15.45;11.98;;;;;;;;;;5118451;28;20196;-61
2021/01/09 00:27:23;;;;;;;21.10;13.18;;;;;;;;;;5118338;28;20203;-59
2021/01/09 00:29:50;;;;;;;16.95;12.55;;;;;;;;;;5118417;28;20203;-59
2021/01/09 00:32:17;;;;;;;17.63;11.98;;;;;;;;;;5118350;28;20271;-59
2021/01/09 00:34:44;;;;;;;14.45;11.82;;;;;;;;;;5120747;28;20199;-60
2021/01/09 00:37:11;;;;;;;18.92;13.43;;;;;;;;;;5120493;27;20573;-58
2021/01/09 00:39:37;;;;;;;17.35;12.23;;;;;;;;;;5119878;28;20200;-58
2021/01/09 00:42:04;;;;;;;15.90;12.48;;;;;;;;;;5121348;27;20227;-59
2021/01/09 00:44:31;;;;;;;15.70;10.82;;;;;;;;;;5121120;27;20226;-59
2021/01/09 00:46:59;;;;;;;14.25;10.45;;;;;;;;;;5119870;28;20663;-59
2021/01/09 00:49:26;;;;;;;17.98;11.85;;;;;;;;;;5121345;28;20219;-59
2021/01/09 00:51:54;;;;;;;16.58;11.32;;;;;;;;;;5119556;28;20220;-59
2021/01/09 00:54:21;;;;;;;14.93;10.45;;;;;;;;;;5118069;28;20598;-60
2021/01/09 00:56:52;;;;;;;16.23;11.98;;;;;;;;;;5117834;28;20200;-59
2021/01/09 00:59:19;;;;;;;15.57;11.40;;;;;;;;;;5117605;28;20265;-59
2021/01/09 01:01:46;;;;;;;17.05;11.63;;;;;;;;;;5117506;28;20770;-59
2021/01/09 01:04:13;;;;;;;14.85;10.52;;;;;;;;;;5117286;28;20686;-60
2021/01/09 01:06:40;;;;;;;13.05;9.50;;;;;;;;;;5117102;28;20260;-58
2021/01/09 01:09:07;;;;;;;12.43;8.57;;;;;;;;;;5117586;28;20220;-59
2021/01/09 01:11:34;;;;;;;13.75;10.13;;;;;;;;;;5117534;28;20227;-58
2021/01/09 01:14:00;;;;;;;14.48;10.98;;;;;;;;;;5117566;28;20202;-58
2021/01/09 01:16:27;;;;;;;12.80;9.50;;;;;;;;;;5117558;28;20207;-59
2021/01/09 01:18:54;;;;;;;12.63;8.45;;;;;;;;;;5117166;27;20516;-59
2021/01/09 01:21:21;;;;;;;12.93;9.30;;;;;;;;;;5116582;28;20714;-59
2021/01/09 01:23:48;;;;;;;13.73;9.90;;;;;;;;;;5117193;28;20200;-60
2021/01/09 01:26:15;;;;;;;13.20;9.98;;;;;;;;;;5117151;28;20204;-59
2021/01/09 01:28:42;;;;;;;12.85;9.55;;;;;;;;;;5117031;28;20220;-59
2021/01/09 01:31:09;;;;;;;14.13;10.30;;;;;;;;;;5117210;28;20273;-60
2021/01/09 01:33:38;;;;;;;14.07;10.55;;;;;;;;;;5117733;28;20195;-59
2021/01/09 01:36:05;;;;;;;15.25;10.57;;;;;;;;;;5116859;28;20291;-60
2021/01/09 01:38:33;;;;;;;12.75;9.88;;;;;;;;;;5117603;27;20260;-60
2021/01/09 01:41:04;;;;;;;13.07;9.98;;;;;;;;;;5117315;28;20247;-59
2021/01/09 01:43:30;;;;;;;12.63;9.40;;;;;;;;;;5118368;28;20264;-60
2021/01/09 01:45:58;;;;;;;13.65;9.50;;;;;;;;;;5117650;28;20199;-59
2021/01/09 01:48:25;;;;;;;14.68;10.05;;;;;;;;;;5117639;28;20356;-59
2021/01/09 01:50:52;;;;;;;13.90;9.98;;;;;;;;;;5117544;28;20223;-60
2021/01/09 01:53:19;;;;;;;14.05;10.48;;;;;;;;;;5117717;28;20241;-59
2021/01/09 01:55:46;;;;;;;11.35;8.57;;;;;;;;;;5117328;28;20663;-58
2021/01/09 01:58:13;;;;;;;16.08;10.43;;;;;;;;;;5117326;28;20196;-59
2021/01/09 02:00:45;;;;;;;12.63;9.68;;;;;;;;;;5117278;28;20216;-60
2021/01/09 02:03:12;;;;;;;17.35;10.15;;;;;;;;;;5116397;28;20184;-59
2021/01/09 02:05:41;;;;;;;11.95;9.88;;;;;;;;;;5116220;28;20219;-59
2021/01/09 02:08:09;;;;;;;15.00;11.05;;;;;;;;;;5117240;28;20530;-60
2021/01/09 02:10:36;;;;;;;14.05;10.45;;;;;;;;;;5115914;28;20249;-59
2021/01/09 02:13:05;;;;;;;14.10;10.10;;;;;;;;;;5115892;28;20211;-59
2021/01/09 02:15:32;;;;;;;13.60;10.13;;;;;;;;;;5116182;28;20203;-59
2021/01/09 02:18:00;;;;;;;14.02;10.82;;;;;;;;;;5115865;28;20671;-59
2021/01/09 02:20:27;;;;;;;16.35;11.07;;;;;;;;;;5115711;28;20237;-59
2021/01/09 02:22:56;;;;;;;11.77;9.48;;;;;;;;;;5116229;28;20204;-59
2021/01/09 02:25:23;;;;;;;16.77;11.95;;;;;;;;;;5116128;28;20204;-59
2021/01/09 02:27:50;;;;;;;16.67;11.10;;;;;;;;;;5116266;28;20224;-60
2021/01/09 02:30:19;;;;;;;17.00;12.70;;;;;;;;;;5118939;28;20203;-60
2021/01/09 02:32:48;;;;;;;16.05;10.35;;;;;;;;;;5119341;28;20200;-60
2021/01/09 02:35:16;;;;;;;17.75;11.90;;;;;;;;;;5121418;28;20671;-59
2021/01/09 02:37:43;;;;;;;16.42;12.75;;;;;;;;;;5118298;28;20280;-59
2021/01/09 02:40:14;;;;;;;18.05;13.32;;;;;;;;;;5115851;28;20203;-59
2021/01/09 02:42:40;;;;;;;18.92;14.07;;;;;;;;;;5116822;28;20216;-60
2021/01/09 02:45:08;;;;;;;17.85;14.23;;;;;;;;;;5116193;28;20543;-60
2021/01/09 02:47:35;;;;;;;19.73;15.68;;;;;;;;;;5114466;28;20573;-59
2021/01/09 02:50:02;;;;;;;23.20;14.80;;;;;;;;;;5116285;28;20226;-59
2021/01/09 02:52:28;;;;;;;19.90;14.23;;;;;;;;;;5115773;28;20220;-59
2021/01/09 02:54:55;;;;;;;17.92;13.65;;;;;;;;;;5115410;28;20252;-59
2021/01/09 02:57:23;;;;;;;20.13;14.65;;;;;;;;;;5115714;28;20196;-59
2021/01/09 02:59:49;;;;;;;17.67;12.38;;;;;;;;;;5115422;28;20743;-59
2021/01/09 03:02:16;;;;;;;19.58;15.10;;;;;;;;;;5116735;28;20733;-59
2021/01/09 03:04:43;;;;;;;18.83;13.50;;;;;;;;;;5115551;28;20200;-59
2021/01/09 03:07:10;;;;;;;16.35;12.60;;;;;;;;;;5122250;28;20211;-59
2021/01/09 03:09:36;;;;;;;18.83;13.30;;;;;;;;;;5133097;28;20253;-59
2021/01/09 03:12:03;;;;;;;17.25;12.70;;;;;;;;;;5117382;28;20730;-59
2021/01/09 03:14:31;;;;;;;18.33;12.73;;;;;;;;;;5116979;28;20208;-59
2021/01/09 03:16:57;;;;;;;18.55;13.63;;;;;;;;;;5115848;28;20199;-58
2021/01/09 03:19:24;;;;;;;19.10;14.07;;;;;;;;;;5116069;28;20196;-60
2021/01/09 03:21:52;;;;;;;20.42;14.20;;;;;;;;;;5134937;28;20227;-60
2021/01/09 03:24:19;;;;;;;19.38;14.38;;;;;;;;;;5136230;28;20208;-59
2021/01/09 03:26:46;;;;;;;18.02;13.05;;;;;;;;;;5133670;28;20200;-59
2021/01/09 03:29:13;;;;;;;18.65;13.75;;;;;;;;;;5115726;28;20212;-58
2021/01/09 03:31:40;;;;;;;23.58;14.80;;;;;;;;;;5114666;28;20783;-59
2021/01/09 03:34:07;;;;;;;20.95;15.55;;;;;;;;;;5114827;28;20195;-60
2021/01/09 03:36:34;;;;;;;21.65;16.48;;;;;;;;;;5114581;28;20195;-59
2021/01/09 03:39:01;;;;;;;23.35;16.52;;;;;;;;;;5115675;28;20200;-58
2021/01/09 03:41:27;;;;;;;22.20;15.93;;;;;;;;;;5114933;28;20343;-59
2021/01/09 03:43:54;;;;;;;22.27;14.95;;;;;;;;;;5116938;28;20278;-59
2021/01/09 03:46:21;;;;;;;20.95;14.85;;;;;;;;;;5118391;28;20207;-59
2021/01/09 03:48:48;;;;;;;21.98;15.13;;;;;;;;;;5125952;28;20686;-59
2021/01/09 03:51:15;;;;;;;21.92;15.15;;;;;;;;;;5120453;28;20220;-58
2021/01/09 03:53:42;;;;;;;20.02;14.23;;;;;;;;;;5123228;28;20233;-59
2021/01/09 03:56:08;;;;;;;22.63;15.05;;;;;;;;;;5128283;28;20203;-59
2021/01/09 03:58:35;;;;;;;26.15;15.57;;;;;;;;;;5129255;28;20202;-58
2021/01/09 04:01:02;;;;;;;19.88;13.60;;;;;;;;;;5127555;28;20219;-59
2021/01/09 04:03:29;;;;;;;18.75;13.38;;;;;;;;;;5118360;28;20196;-59
2021/01/09 04:07:34;;;;;;;19.90;13.80;;;;;;;;;;5115684;27;20544;-58
2021/01/09 04:10:01;;;;;;;20.52;12.93;;;;;;;;;;5118321;28;20218;-58
2021/01/09 04:12:27;;;;;;;17.48;12.43;;;;;;;;;;5120608;28;20238;-59
2021/01/09 04:14:54;;;;;;;18.60;13.00;;;;;;;;;;5120284;28;20196;-58
2021/01/09 04:17:21;;;;;;;18.83;13.93;;;;;;;;;;5117945;28;20663;-59
2021/01/09 04:19:48;;;;;;;18.27;12.80;;;;;;;;;;5118022;28;20204;-58
2021/01/09 04:22:14;;;;;;;18.35;13.52;;;;;;;;;;5116946;28;20231;-59
2021/01/09 04:24:42;;;;;;;15.18;10.45;;;;;;;;;;5117337;28;20728;-59
2021/01/09 04:27:09;;;;;;;19.00;12.30;;;;;;;;;;5116990;28;20215;-59
2021/01/09 04:29:36;;;;;;;16.60;11.80;;;;;;;;;;5117179;28;20254;-59
2021/01/09 04:32:03;;;;;;;16.10;11.13;;;;;;;;;;5115411;28;20224;-59
2021/01/09 04:34:29;;;;;;;18.02;12.38;;;;;;;;;;5114147;28;20200;-58
2021/01/09 04:36:56;;;;;;;18.58;12.85;;;;;;;;;;5114431;28;20204;-59
2021/01/09 04:39:23;;;;;;;17.20;12.45;;;;;;;;;;5115693;28;20256;-59
2021/01/09 04:41:50;;;;;;;19.25;12.45;;;;;;;;;;5114148;28;20216;-58
2021/01/09 04:44:17;;;;;;;17.45;12.90;;;;;;;;;;5117811;28;20199;-58
2021/01/09 04:46:51;;;;;;;19.48;12.85;;;;;;;;;;5118572;28;20688;-58
2021/01/09 04:49:18;;;;;;;19.88;12.30;;;;;;;;;;5118773;28;20196;-58
2021/01/09 04:51:45;;;;;;;18.05;12.80;;;;;;;;;;5114852;28;20216;-59
2021/01/09 04:54:15;;;;;;;18.10;12.13;;;;;;;;;;5117210;28;20217;-58
2021/01/09 04:56:44;;;;;;;16.73;11.98;;;;;;;;;;5117464;28;20219;-58
2021/01/09 04:59:12;;;;;;;17.67;11.38;;;;;;;;;;5118038;28;20664;-59
2021/01/09 05:01:39;;;;;;;17.55;12.63;;;;;;;;;;5116822;28;20695;-58
2021/01/09 05:04:06;;;;;;;18.77;12.50;;;;;;;;;;5116811;28;20222;-59
2021/01/09 05:06:33;;;;;;;17.75;11.88;;;;;;;;;;5117804;28;20223;-59
2021/01/09 05:09:00;;;;;;;19.73;12.45;;;;;;;;;;5118763;28;20236;-59
2021/01/09 05:11:27;;;;;;;21.50;11.23;;;;;;;;;;5112990;28;20220;-59
2021/01/09 05:13:54;;;;;;;20.15;12.85;;;;;;;;;;5111407;28;20196;-59
2021/01/09 05:16:21;;;;;;;15.20;10.45;;;;;;;;;;5111480;28;20195;-58
2021/01/09 05:18:48;;;;;;;16.48;9.80;;;;;;;;;;5102326;28;20205;-59
2021/01/09 05:21:15;;;;;;;16.10;11.48;;;;;;;;;;5103936;28;20216;-59
2021/01/09 05:23:51;;;;;;;13.82;10.00;;;;;;;;;;5103415;28;20204;-59
2021/01/09 05:26:19;;;;;;;13.77;9.82;;;;;;;;;;5104252;28;20550;-59
2021/01/09 05:28:46;;;;;;;13.27;9.48;;;;;;;;;;5103065;28;20207;-59
2021/01/09 05:31:14;;;;;;;15.30;9.50;;;;;;;;;;5101719;28;20225;-59
2021/01/09 05:33:42;;;;;;;12.60;10.25;;;;;;;;;;5100705;28;20258;-59
2021/01/09 05:36:09;;;;;;;14.77;10.90;;;;;;;;;;5099404;28;20612;-59
2021/01/09 05:38:37;;;;;;;11.98;8.77;;;;;;;;;;5098849;28;20705;-59
2021/01/09 05:41:04;;;;;;;11.20;8.85;;;;;;;;;;5097593;28;20217;-60
2021/01/09 05:43:31;;;;;;;13.80;8.35;;;;;;;;;;5098110;28;20223;-59
2021/01/09 05:45:58;;;;;;;11.73;8.35;;;;;;;;;;5097530;28;20699;-59
2021/01/09 05:48:25;;;;;;;12.73;8.65;;;;;;;;;;5098071;28;20204;-60
2021/01/09 05:50:54;;;;;;;14.60;9.25;;;;;;;;;;5098821;28;20243;-59
2021/01/09 05:53:38;;;;;;;13.15;9.95;;;;;;;;;;5098087;28;20572;-60
2021/01/09 05:56:05;;;;;;;11.77;9.07;;;;;;;;;;5098350;28;20184;-59
2021/01/09 05:58:32;;;;;;;13.20;9.40;;;;;;;;;;5096666;28;20668;-59
2021/01/09 06:00:59;;;;;;;12.45;7.93;;;;;;;;;;5096843;28;20220;-59
2021/01/09 06:03:37;;;;;;;11.23;8.30;;;;;;;;;;5097115;28;20585;-59
2021/01/09 06:06:09;;;;;;;11.88;8.45;;;;;;;;;;5096453;28;20220;-59
2021/01/09 06:08:38;;;;;;;11.88;8.88;;;;;;;;;;5097572;28;20200;-59
2021/01/09 06:11:09;;;;;;;10.45;7.45;;;;;;;;;;5098232;28;20216;-59
2021/01/09 06:13:36;;;;;;;12.45;8.48;;;;;;;;;;5099358;28;20271;-60
2021/01/09 06:16:05;;;;;;;12.13;7.85;;;;;;;;;;5097019;28;20197;-59
2021/01/09 06:18:33;;;;;;;11.13;8.73;;;;;;;;;;5096511;28;20258;-59
2021/01/09 06:21:00;;;;;;;12.02;8.85;;;;;;;;;;5096074;28;20635;-59
2021/01/09 06:23:27;;;;;;;12.85;8.55;;;;;;;;;;5097715;28;20204;-59
2021/01/09 06:25:57;;;;;;;13.32;8.65;;;;;;;;;;5100033;28;20227;-59
2021/01/09 06:28:24;;;;;;;11.82;8.05;;;;;;;;;;5103328;28;20221;-60
2021/01/09 06:30:55;;;;;;;10.38;8.27;;;;;;;;;;5100414;28;20235;-59
2021/01/09 06:33:24;;;;;;;9.60;7.43;;;;;;;;;;5097302;28;20275;-60
2021/01/09 06:35:54;;;;;;;11.93;9.15;;;;;;;;;;5098139;28;20272;-60
2021/01/09 06:38:21;;;;;;;13.07;8.30;;;;;;;;;;5095053;28;20600;-58
2021/01/09 06:40:50;;;;;;;11.70;9.07;;;;;;;;;;5095684;28;20704;-59
2021/01/09 06:43:18;;;;;;;13.15;8.88;;;;;;;;;;5095994;28;20218;-58
2021/01/09 06:45:45;;;;;;;10.40;8.68;;;;;;;;;;5096885;28;20224;-59
2021/01/09 06:50:53;;;;;;;12.98;9.20;;;;;;;;;;5096679;28;20665;-59
2021/01/09 06:53:20;;;;;;;12.07;9.35;;;;;;;;;;5096027;28;20717;-59
2021/01/09 06:56:04;;;;;;;12.35;9.70;;;;;;;;;;5095337;28;20722;-59
2021/01/09 06:58:32;;;;;;;12.70;9.90;;;;;;;;;;5095300;28;20702;-60
2021/01/09 07:01:16;;;;;;;14.02;10.20;;;;;;;;;;5095715;28;20221;-59
2021/01/09 07:03:46;;;;;;;13.55;10.02;;;;;;;;;;5096065;28;20214;-59
2021/01/09 07:06:13;;;;;;;13.05;10.43;;;;;;;;;;5095041;28;20219;-59
2021/01/09 07:08:40;;;;;;;14.38;9.57;;;;;;;;;;5095563;28;20200;-59
2021/01/09 07:11:07;;;;;;;14.07;9.98;;;;;;;;;;5095299;28;20216;-59
2021/01/09 07:13:36;;;;;;;15.00;10.68;;;;;;;;;;5095698;28;20273;-59
2021/01/09 07:16:06;;;;;;;12.98;11.20;;;;;;;;;;5094976;28;20196;-60
2021/01/09 07:18:34;;;;;;;15.57;10.10;;;;;;;;;;5094524;28;20193;-60
2021/01/09 07:21:03;;;;;;;12.88;10.00;;;;;;;;;;5095469;28;20255;-59
2021/01/09 07:23:30;;;;;;;15.80;11.85;;;;;;;;;;5096778;28;20204;-59
2021/01/09 07:25:57;;;;;;;12.38;10.38;;;;;;;;;;5096686;28;20323;-59
2021/01/09 07:28:24;;;;;;;12.98;10.50;;;;;;;;;;5096141;28;20249;-59
2021/01/09 07:31:02;;;;;;;12.57;9.02;;;;;;;;;;5095567;28;20231;-59
2021/01/09 07:33:30;;;;;;;14.80;10.75;;;;;;;;;;5095213;28;20268;-58
2021/01/09 07:35:57;;;;;;;13.95;9.95;;;;;;;;;;5094915;28;20241;-59
2021/01/09 07:38:24;;;;;;;19.00;10.32;;;;;;;;;;5095534;28;20201;-59
2021/01/09 07:40:52;;;;;;;14.98;10.50;;;;;;;;;;5095012;28;20242;-59
2021/01/09 07:43:38;;;;;;;14.57;11.38;;;;;;;;;;5095619;28;20204;-59
2021/01/09 07:46:20;;;;;;;14.15;11.27;;;;;;;;;;5096803;28;20208;-59
2021/01/09 07:48:48;;;;;;;15.35;10.60;;;;;;;;;;5097312;28;20208;-58
2021/01/09 07:51:14;;;;;;;15.25;11.73;;;;;;;;;;5097030;28;20220;-59
2021/01/09 07:53:45;;;;;;;15.32;11.52;;;;;;;;;;5094898;28;20208;-59
2021/01/09 07:56:12;;;;;;;13.13;10.40;;;;;;;;;;5094694;28;20219;-60
2021/01/09 07:58:45;;;;;;;14.93;10.82;;;;;;;;;;5094149;28;20261;-59
2021/01/09 08:01:12;;;;;;;13.80;10.93;;;;;;;;;;5094244;28;20228;-60
2021/01/09 08:03:39;;;;;;;21.25;12.68;;;;;;;;;;5094541;28;20572;-59
2021/01/09 08:06:07;;;;;;;13.85;10.10;;;;;;;;;;5094994;28;20315;-60
2021/01/09 08:08:34;;;;;;;16.95;11.85;;;;;;;;;;5095898;28;20200;-60
2021/01/09 08:11:04;;;;;;;15.65;11.95;;;;;;;;;;5095580;28;20228;-60
2021/01/09 08:13:30;;;;;;;14.25;10.77;;;;;;;;;;5095503;28;20713;-59
2021/01/09 08:15:59;;;;;;;16.80;11.45;;;;;;;;;;5094785;28;20718;-60
2021/01/09 08:18:25;;;;;;;14.93;11.68;;;;;;;;;;5095776;28;20291;-59
2021/01/09 08:20:52;;;;;;;14.82;11.80;;;;;;;;;;5097287;28;20216;-59
2021/01/09 08:23:20;;;;;;;18.85;12.25;;;;;;;;;;5098310;28;20223;-59
2021/01/09 08:25:46;;;;;;;13.48;10.90;;;;;;;;;;5095925;28;20265;-59
2021/01/09 08:28:14;;;;;;;16.92;12.38;;;;;;;;;;5093843;28;20203;-59
2021/01/09 08:30:41;;;;;;;16.67;11.52;;;;;;;;;;5094181;28;20220;-59
2021/01/09 08:33:09;;;;;;;15.60;10.65;;;;;;;;;;5093133;28;20237;-60
2021/01/09 08:35:36;;;;;;;14.50;10.93;;;;;;;;;;5093600;28;20201;-60
2021/01/09 08:38:04;;;;;;;16.55;10.82;;;;;;;;;;5093619;28;20204;-60
2021/01/09 08:40:32;;;;;;;14.90;10.13;;;;;;;;;;5093451;28;20230;-59
2021/01/09 08:43:00;;;;;;;14.02;11.43;;;;;;;;;;5094336;28;20254;-61
2021/01/09 08:45:51;;;;;;;16.23;10.65;;;;;;;;;;5096535;28;20257;-58
2021/01/09 08:48:19;;;;;;;17.83;11.77;;;;;;;;;;5083683;28;20200;-60
2021/01/09 08:50:47;;;;;;;14.60;10.80;;;;;;;;;;5103529;28;20220;-58
2021/01/09 08:53:15;;;;;;;16.75;11.43;;;;;;;;;;5104033;28;20204;-60
2021/01/09 08:55:43;;;;;;;18.70;12.18;;;;;;;;;;5105244;28;20224;-60
2021/01/09 08:58:12;;;;;;;15.65;11.80;;;;;;;;;;5099227;28;20207;-60
2021/01/09 09:00:39;;;;;;;19.42;10.40;;;;;;;;;;5098308;28;20589;-61
2021/01/09 09:03:07;;;;;;;14.05;11.48;;;;;;;;;;5098053;28;20577;-59
2021/01/09 09:05:34;;;;;;;15.88;11.55;;;;;;;;;;5098127;28;20295;-59
2021/01/09 09:08:02;;;;;;;16.65;12.40;;;;;;;;;;5097342;28;20196;-60
2021/01/09 09:10:29;;;;;;;16.42;11.75;;;;;;;;;;5097349;28;20208;-59
2021/01/09 09:13:14;;;;;;;14.98;11.75;;;;;;;;;;5097277;28;20393;-60
2021/01/09 09:15:41;;;;;;;16.33;11.77;;;;;;;;;;5097479;28;20188;-60
2021/01/09 09:18:08;;;;;;;15.40;11.48;;;;;;;;;;5108695;28;20234;-59
2021/01/09 09:20:35;;;;;;;16.73;12.35;;;;;;;;;;5105506;28;20197;-59
2021/01/09 09:23:14;;;;;;;18.98;12.73;;;;;;;;;;5098986;28;20200;-58
2021/01/09 09:25:41;;;;;;;20.80;12.25;;;;;;;;;;5099174;28;20185;-60
2021/01/09 09:28:07;;;;;;;12.10;10.30;;;;;;;;;;5098679;28;20200;-59
2021/01/09 09:30:35;;;;;;;17.45;13.27;;;;;;;;;;5097462;28;20211;-59
2021/01/09 09:33:11;;;;;;;17.40;13.40;;;;;;;;;;5099173;28;20211;-59
2021/01/09 09:35:39;;;;;;;15.30;11.32;;;;;;;;;;5098354;28;20184;-59
2021/01/09 09:38:06;;;;;;;16.77;11.50;;;;;;;;;;5098616;28;20668;-59
2021/01/09 09:40:33;;;;;;;19.67;12.23;;;;;;;;;;5096698;28;20204;-59
2021/01/09 09:43:15;;;;;;;17.15;12.35;;;;;;;;;;5096638;28;20197;-60
2021/01/09 09:45:56;;;;;;;15.77;11.63;;;;;;;;;;5093976;28;20273;-59
2021/01/09 09:48:32;;;;;;;16.33;11.98;;;;;;;;;;5096983;28;20246;-59
2021/01/09 09:51:05;;;;;;;18.10;13.35;;;;;;;;;;5096692;28;20219;-59
2021/01/09 09:53:35;;;;;;;21.02;13.05;;;;;;;;;;5097180;28;20207;-60
2021/01/09 09:56:12;;;;;;;19.45;13.40;;;;;;;;;;5097503;28;20582;-60
2021/01/09 09:58:39;;;;;;;20.00;13.02;;;;;;;;;;5098096;28;20728;-59
2021/01/09 10:01:15;;;;;;;17.02;13.00;;;;;;;;;;5107952;28;20725;-59
2021/01/09 10:03:42;;;;;;;20.52;12.57;;;;;;;;;;5097923;28;20185;-59
2021/01/09 10:06:09;;;;;;;17.45;12.77;;;;;;;;;;5096895;28;20224;-61
2021/01/09 10:08:36;;;;;;;20.08;13.68;;;;;;;;;;5097253;28;20207;-60
2021/01/09 10:11:03;;;;;;;19.35;12.50;;;;;;;;;;5096891;28;20216;-60
2021/01/09 10:13:30;;;;;;;18.50;11.57;;;;;;;;;;5096335;28;20208;-60
2021/01/09 10:15:57;;;;;;;15.27;10.60;;;;;;;;;;5095504;28;20200;-59
2021/01/09 10:18:25;;;;;;;15.18;9.60;;;;;;;;;;5095445;28;20207;-60
2021/01/09 10:20:52;;;;;;;13.63;9.45;;;;;;;;;;5096053;28;20220;-60
2021/01/09 10:23:19;;;;;;;12.30;9.25;;;;;;;;;;5097151;28;20250;-60
2021/01/09 10:25:46;;;;;;;14.63;9.40;;;;;;;;;;5099672;28;20205;-60
2021/01/09 10:28:12;;;;;;;15.30;10.43;;;;;;;;;;5095379;28;20200;-61
2021/01/09 10:30:39;;;;;;;14.40;10.07;;;;;;;;;;5095343;28;20217;-60
2021/01/09 10:33:07;;;;;;;15.95;9.55;;;;;;;;;;5095488;28;20200;-60
2021/01/09 10:35:35;;;;;;;12.02;9.02;;;;;;;;;;5095244;28;20200;-59
2021/01/09 10:38:02;;;;;;;13.45;9.77;;;;;;;;;;5094840;28;20253;-60
2021/01/09 10:40:31;;;;;;;12.45;9.30;;;;;;;;;;5094587;28;20675;-61
2021/01/09 10:42:57;;;;;;;13.85;10.10;;;;;;;;;;5094650;28;20216;-61
2021/01/09 10:45:24;;;;;;;15.02;10.80;;;;;;;;;;5094735;28;20207;-60
2021/01/09 10:47:51;;;;;;;13.40;9.68;;;;;;;;;;5094677;28;20224;-60
2021/01/09 10:50:18;;;;;;;12.13;9.10;;;;;;;;;;5094373;28;20200;-60
2021/01/09 10:52:46;;;;;;;14.02;9.98;;;;;;;;;;5094804;28;20204;-61
2021/01/09 10:55:13;;;;;;;12.18;8.27;;;;;;;;;;5094709;28;20215;-59
2021/01/09 10:57:39;;;;;;;14.43;10.80;;;;;;;;;;5094634;28;20416;-59
2021/01/09 11:00:08;;;;;;;15.15;9.80;;;;;;;;;;5094458;28;20204;-59
2021/01/09 11:02:34;;;;;;;11.80;8.43;;;;;;;;;;5094873;28;20220;-59
2021/01/09 11:05:02;;;;;;;10.55;8.23;;;;;;;;;;5094078;28;20204;-59
2021/01/09 11:07:28;;;;;;;12.50;9.73;;;;;;;;;;5094164;28;20223;-59
2021/01/09 11:09:56;;;;;;;15.00;9.57;;;;;;;;;;5095465;28;20200;-60
2021/01/09 11:12:24;;;;;;;13.98;9.23;;;;;;;;;;5094232;28;20278;-61
2021/01/09 11:14:52;;;;;;;10.65;8.68;;;;;;;;;;5097671;28;20196;-61
2021/01/09 11:17:19;;;;;;;15.82;9.48;;;;;;;;;;5101653;28;20224;-59
2021/01/09 11:19:46;;;;;;;15.23;9.90;;;;;;;;;;5098198;28;20279;-59
2021/01/09 11:22:13;;;;;;;15.95;11.05;;;;;;;;;;5096963;28;20235;-61
2021/01/09 11:24:39;;;;;;;17.13;10.55;;;;;;;;;;5100194;28;20284;-58
2021/01/09 11:27:08;;;;;;;15.80;11.13;;;;;;;;;;5099808;28;20227;-59
2021/01/09 11:29:35;;;;;;;16.58;10.98;;;;;;;;;;5100773;28;20208;-58
2021/01/09 11:32:02;;;;;;;18.88;13.35;;;;;;;;;;5098625;28;20226;-60
2021/01/09 11:34:29;;;;;;;16.20;12.23;;;;;;;;;;5096566;28;20225;-60
2021/01/09 11:36:56;;;;;;;17.15;12.52;;;;;;;;;;5094978;28;20192;-59
2021/01/09 11:39:23;;;;;;;17.98;12.77;;;;;;;;;;5094686;28;20208;-58
2021/01/09 11:41:50;;;;;;;20.50;14.20;;;;;;;;;;5095124;28;20225;-58
2021/01/09 11:44:18;;;;;;;15.93;11.65;;;;;;;;;;5098506;28;20204;-60
2021/01/09 11:46:45;;;;;;;17.40;12.70;;;;;;;;;;5098544;28;20220;-61
2021/01/09 11:49:12;;;;;;;15.68;11.35;;;;;;;;;;5097824;28;20208;-59
2021/01/09 11:51:38;;;;;;;15.43;12.32;;;;;;;;;;5096318;28;20224;-60
2021/01/09 11:54:05;;;;;;;16.38;12.15;;;;;;;;;;5096648;28;20207;-59
2021/01/09 11:56:32;;;;;;;16.55;11.32;;;;;;;;;;5095657;28;20208;-60
2021/01/09 11:58:59;;;;;;;17.67;12.75;;;;;;;;;;5095833;28;20207;-60
2021/01/09 12:01:35;;;;;;;18.15;12.85;;;;;;;;;;5094855;28;20224;-60
2021/01/09 12:04:01;;;;;;;18.05;12.90;;;;;;;;;;5094566;28;20237;-60
2021/01/09 12:06:28;;;;;;;16.35;12.10;;;;;;;;;;5096159;28;20224;-60
2021/01/09 12:08:55;;;;;;;18.42;14.50;;;;;;;;;;5095428;28;20437;-59
2021/01/09 12:11:22;;;;;;;16.73;12.48;;;;;;;;;;5096164;28;20711;-58
2021/01/09 12:13:49;;;;;;;16.02;12.10;;;;;;;;;;5096507;28;20200;-60
2021/01/09 12:16:16;;;;;;;18.73;13.63;;;;;;;;;;5095539;28;20216;-60
2021/01/09 12:18:44;;;;;;;19.13;14.20;;;;;;;;;;5100283;28;20200;-61
2021/01/09 12:21:10;;;;;;;16.33;12.63;;;;;;;;;;5101226;28;20224;-60
2021/01/09 12:23:37;;;;;;;21.17;14.38;;;;;;;;;;5094769;28;20208;-60
2021/01/09 12:26:04;;;;;;;20.20;13.60;;;;;;;;;;5096572;28;20257;-61
2021/01/09 12:28:30;;;;;;;17.58;11.60;;;;;;;;;;5098893;28;20223;-62
2021/01/09 12:30:57;;;;;;;17.77;12.25;;;;;;;;;;5106292;28;20224;-61
2021/01/09 12:33:24;;;;;;;17.02;13.02;;;;;;;;;;5099818;28;20257;-58
2021/01/09 12:35:51;;;;;;;16.67;11.88;;;;;;;;;;5098323;28;20200;-60
2021/01/09 12:38:18;;;;;;;16.33;11.88;;;;;;;;;;5098010;28;20197;-57
2021/01/09 12:40:45;;;;;;;15.48;11.45;;;;;;;;;;5097215;28;20220;-60
2021/01/09 12:43:13;;;;;;;15.60;11.63;;;;;;;;;;5097222;28;20207;-59
2021/01/09 12:45:40;;;;;;;17.48;12.65;;;;;;;;;;5097493;28;20232;-60
2021/01/09 12:48:07;;;;;;;13.52;10.65;;;;;;;;;;5097426;28;20235;-59
2021/01/09 12:50:33;;;;;;;14.93;10.52;;;;;;;;;;5097233;28;20200;-58
2021/01/09 12:53:01;;;;;;;14.13;10.05;;;;;;;;;;5098231;28;20200;-60
2021/01/09 12:55:28;;;;;;;14.43;10.35;;;;;;;;;;5097259;28;20211;-60
2021/01/09 12:57:55;;;;;;;14.57;10.38;;;;;;;;;;5102315;28;20199;-60
2021/01/09 13:00:22;;;;;;;16.40;12.23;;;;;;;;;;5096950;28;20243;-58
2021/01/09 13:02:48;;;;;;;18.45;10.98;;;;;;;;;;5096717;28;20204;-61
2021/01/09 13:05:15;;;;;;;14.07;10.23;;;;;;;;;;5096679;28;20197;-60
2021/01/09 13:07:45;;;;;;;19.50;11.35;;;;;;;;;;5097048;28;20271;-58
2021/01/09 13:10:12;;;;;;;15.02;10.40;;;;;;;;;;5097142;28;20196;-58
2021/01/09 13:12:39;;;;;;;15.90;11.57;;;;;;;;;;5096838;28;20569;-59
2021/01/09 13:15:06;;;;;;;19.23;12.18;;;;;;;;;;5096971;28;20208;-59
2021/01/09 13:17:33;;;;;;;15.68;10.75;;;;;;;;;;5096378;28;20667;-60
2021/01/09 13:20:01;;;;;;;14.38;10.20;;;;;;;;;;5096625;28;20200;-59
2021/01/09 13:22:27;;;;;;;15.70;10.93;;;;;;;;;;5096571;28;20327;-59
2021/01/09 13:24:54;;;;;;;15.85;11.30;;;;;;;;;;5097130;28;20205;-58
2021/01/09 13:27:22;;;;;;;18.30;12.43;;;;;;;;;;5096936;28;20219;-59
2021/01/09 13:29:49;;;;;;;14.13;10.32;;;;;;;;;;5096473;28;20205;-59
2021/01/09 13:32:19;;;;;;;15.05;10.57;;;;;;;;;;5095822;28;20712;-60
2021/01/09 13:34:46;;;;;;;17.50;11.45;;;;;;;;;;5096730;28;20192;-59
2021/01/09 13:37:13;;;;;;;16.60;12.00;;;;;;;;;;5096603;28;20200;-58
2021/01/09 13:39:39;;;;;;;15.88;11.15;;;;;;;;;;5095916;28;20201;-58
2021/01/09 13:42:06;;;;;;;15.23;12.02;;;;;;;;;;5096048;28;20228;-59
2021/01/09 13:44:34;;;;;;;19.05;12.25;;;;;;;;;;5096161;28;20200;-57
2021/01/09 13:47:00;;;;;;;17.85;13.60;;;;;;;;;;5095417;28;20797;-59
2021/01/09 13:49:27;;;;;;;17.15;14.25;;;;;;;;;;5096307;28;20212;-57
2021/01/09 13:51:54;;;;;;;15.75;13.18;;;;;;;;;;5096984;28;20227;-59
2021/01/09 13:54:21;;;;;;;19.77;13.60;;;;;;;;;;5096354;28;20203;-59
2021/01/09 13:56:48;;;;;;;18.38;11.98;;;;;;;;;;5096441;28;20204;-58
2021/01/09 13:59:15;;;;;;;15.50;11.73;;;;;;;;;;5096676;28;20204;-60
2021/01/09 14:01:44;;;;;;;18.02;12.02;;;;;;;;;;5096593;28;20248;-60
2021/01/09 14:04:11;;;;;;;17.58;10.27;;;;;;;;;;5096418;28;20203;-60
2021/01/09 14:06:38;;;;;;;17.25;11.60;;;;;;;;;;5096275;28;20220;-59
2021/01/09 14:09:05;;;;;;;15.20;11.07;;;;;;;;;;5097894;28;20240;-60
2021/01/09 14:11:32;;;;;;;12.82;9.88;;;;;;;;;;5098187;28;20248;-58
2021/01/09 14:13:59;;;;;;;14.43;10.15;;;;;;;;;;5097434;28;20201;-60
2021/01/09 14:16:27;;;;;;;16.27;10.32;;;;;;;;;;5096715;28;20207;-59
2021/01/09 14:18:54;;;;;;;13.27;10.40;;;;;;;;;;5097276;28;20196;-60
2021/01/09 14:21:22;;;;;;;12.95;9.57;;;;;;;;;;5098713;28;20224;-58
2021/01/09 14:23:49;;;;;;;15.57;10.02;;;;;;;;;;5097132;28;20208;-58
2021/01/09 14:26:16;;;;;;;15.32;11.30;;;;;;;;;;5096790;28;20575;-60
2021/01/09 14:28:43;;;;;;;16.13;12.15;;;;;;;;;;5097653;28;20197;-62